Time;durP1;ratioP1;P1;durP2;ratioP2;P2;SDS_P1;SDS_P2;PMS_P1;PMS_P2;Temp;Humidity;BMP_temperature;BMP_pressure;BME280_temperature;BME280_humidity;BME280_pressure;Samples;Min_cycle;Max_cycle;Signal;HPM_P1;HPM_P2
2022/04/07 00:00:52;;;;;;;1999.90;999.90;;;11.10;99.90;;;;;;4992450;28;20671;-71
2022/04/07 00:03:17;;;;;;;1999.90;999.90;;;11.10;99.90;;;;;;4992343;28;20548;-71
2022/04/07 00:05:43;;;;;;;1999.90;999.90;;;11.00;99.90;;;;;;4992119;28;20938;-71
2022/04/07 00:08:10;;;;;;;1999.90;999.90;;;11.00;99.90;;;;;;4992165;28;20215;-71
2022/04/07 00:10:37;;;;;;;1999.90;999.90;;;11.00;99.90;;;;;;4992337;28;20166;-71
2022/04/07 00:13:03;;;;;;;1999.90;999.90;;;11.00;99.90;;;;;;4992324;28;20404;-71
2022/04/07 00:15:29;;;;;;;1999.90;999.90;;;11.00;99.90;;;;;;4995696;28;20469;-71
2022/04/07 00:17:56;;;;;;;1999.90;999.90;;;11.10;99.90;;;;;;4996076;28;20515;-70
2022/04/07 00:20:21;;;;;;;1999.90;999.90;;;11.10;99.90;;;;;;4996024;28;20411;-71
2022/04/07 00:22:48;;;;;;;1999.90;999.90;;;11.10;99.90;;;;;;4996075;28;20434;-70
2022/04/07 00:25:14;;;;;;;1999.90;999.90;;;11.10;99.90;;;;;;4995692;28;20187;-71
2022/04/07 00:27:39;;;;;;;1999.90;999.90;;;11.10;99.90;;;;;;4994482;28;20463;-70
2022/04/07 00:30:06;;;;;;;1999.90;999.90;;;11.00;99.90;;;;;;4995949;28;20446;-70
2022/04/07 00:32:31;;;;;;;1999.90;999.90;;;11.00;99.90;;;;;;4995859;28;20248;-71
2022/04/07 00:34:57;;;;;;;1999.90;999.90;;;10.90;99.90;;;;;;4995573;28;20976;-70
2022/04/07 00:37:23;;;;;;;1999.90;999.90;;;10.80;99.90;;;;;;4995586;28;20212;-71
2022/04/07 00:39:52;;;;;;;1999.90;999.90;;;10.80;99.90;;;;;;4995648;28;20169;-71
2022/04/07 00:42:18;;;;;;;1999.90;999.90;;;10.80;99.90;;;;;;4995624;28;20499;-71
2022/04/07 00:44:44;;;;;;;1999.90;999.90;;;10.80;99.90;;;;;;4995389;28;20416;-71
2022/04/07 00:47:10;;;;;;;1999.90;999.90;;;10.90;99.90;;;;;;4995432;28;20465;-71
2022/04/07 00:49:36;;;;;;;1999.90;999.90;;;10.80;99.90;;;;;;4994237;28;20176;-71
2022/04/07 00:52:02;;;;;;;1999.90;999.90;;;10.80;99.90;;;;;;4995466;28;20411;-70
2022/04/07 00:54:29;;;;;;;1999.90;999.90;;;10.90;99.90;;;;;;4995155;28;20204;-71
2022/04/07 00:56:55;;;;;;;1999.90;999.90;;;11.00;99.90;;;;;;4995294;28;20771;-71
2022/04/07 00:59:23;;;;;;;1999.90;999.90;;;10.90;99.90;;;;;;4995404;28;20414;-71
2022/04/07 01:01:49;;;;;;;1999.90;999.90;;;11.00;99.90;;;;;;4995269;28;20416;-71
2022/04/07 01:04:16;;;;;;;1999.90;999.90;;;11.00;99.90;;;;;;4995079;28;20416;-71
2022/04/07 01:06:42;;;;;;;1999.90;999.90;;;11.00;99.90;;;;;;4995683;28;20954;-71
2022/04/07 01:09:12;;;;;;;1999.90;999.90;;;11.10;99.90;;;;;;4995459;28;20401;-71
2022/04/07 01:11:38;;;;;;;1999.90;999.90;;;11.10;99.90;;;;;;4995048;28;20415;-71
2022/04/07 01:14:04;;;;;;;1999.90;999.90;;;11.10;99.90;;;;;;4994788;28;20415;-71
2022/04/07 01:16:30;;;;;;;1999.90;999.90;;;11.00;99.90;;;;;;4995039;28;20418;-71
2022/04/07 01:18:59;;;;;;;1999.90;999.90;;;11.00;99.90;;;;;;4994945;28;20436;-71
2022/04/07 01:21:30;;;;;;;1999.90;999.90;;;11.00;99.90;;;;;;4994898;28;20248;-71
2022/04/07 01:24:06;;;;;;;1999.90;999.90;;;11.00;99.90;;;;;;4994825;28;20423;-71
2022/04/07 01:26:33;;;;;;;1999.90;999.90;;;11.00;99.90;;;;;;4993665;28;20481;-71
2022/04/07 01:29:00;;;;;;;1999.90;999.90;;;11.00;99.90;;;;;;4994746;28;20506;-71
2022/04/07 01:31:27;;;;;;;1999.90;999.90;;;11.00;99.90;;;;;;4994758;28;20442;-71
2022/04/07 01:33:54;;;;;;;1999.90;999.90;;;11.00;99.90;;;;;;4994684;28;20407;-71
2022/04/07 01:36:20;;;;;;;1999.90;999.90;;;11.10;99.90;;;;;;4994459;28;20411;-71
2022/04/07 01:38:46;;;;;;;1999.90;999.90;;;11.10;99.90;;;;;;4994483;28;20541;-70
2022/04/07 01:41:13;;;;;;;1999.90;999.90;;;11.10;99.90;;;;;;4994549;28;20415;-71
2022/04/07 01:43:40;;;;;;;1999.90;999.90;;;11.10;99.90;;;;;;4994516;28;20439;-71
2022/04/07 01:46:10;;;;;;;1999.90;999.90;;;11.10;99.90;;;;;;4994188;28;20442;-71
2022/04/07 01:48:35;;;;;;;1999.90;999.90;;;11.00;99.90;;;;;;4994311;28;20972;-70
2022/04/07 01:51:02;;;;;;;1999.90;999.90;;;11.10;99.90;;;;;;4994425;28;20496;-71
2022/04/07 01:53:29;;;;;;;1999.90;999.90;;;11.10;99.90;;;;;;4994343;28;20180;-71
2022/04/07 01:55:55;;;;;;;1999.90;999.90;;;11.10;99.90;;;;;;4994015;28;20407;-71
2022/04/07 01:58:22;;;;;;;1999.90;999.90;;;11.10;99.90;;;;;;4994167;28;20436;-71
2022/04/07 02:00:48;;;;;;;1999.90;999.90;;;11.10;99.90;;;;;;4994216;28;20518;-71
2022/04/07 02:03:13;;;;;;;1999.90;999.90;;;11.10;99.90;;;;;;4994169;28;20929;-70
2022/04/07 02:05:39;;;;;;;1999.90;999.90;;;11.10;99.90;;;;;;4993845;28;20176;-71
2022/04/07 02:08:05;;;;;;;1999.90;999.90;;;11.10;99.90;;;;;;4993943;28;20203;-70
2022/04/07 02:10:32;;;;;;;1999.90;999.90;;;11.10;99.90;;;;;;4994012;28;20175;-71
2022/04/07 02:12:58;;;;;;;1999.90;999.90;;;11.10;99.90;;;;;;4994056;28;20187;-70
2022/04/07 02:15:26;;;;;;;1999.90;999.90;;;11.10;99.90;;;;;;4993607;28;20412;-71
2022/04/07 02:17:51;;;;;;;1999.90;999.90;;;11.00;99.90;;;;;;4993851;28;20423;-70
2022/04/07 02:20:19;;;;;;;1999.90;999.90;;;11.00;99.90;;;;;;4993847;28;20817;-70
2022/04/07 02:22:44;;;;;;;1999.90;999.90;;;11.00;99.90;;;;;;4993874;28;20296;-70
2022/04/07 02:25:10;;;;;;;1999.90;999.90;;;11.00;99.90;;;;;;4993457;28;20921;-71
2022/04/07 02:27:37;;;;;;;1999.90;999.90;;;11.10;99.90;;;;;;4993508;28;20199;-70
2022/04/07 02:30:08;;;;;;;1999.90;999.90;;;11.10;99.90;;;;;;5047987;23;20502;-71
2022/04/07 02:32:34;;;;;;;1999.90;999.90;;;11.00;99.90;;;;;;5013525;28;20412;-70
2022/04/07 02:35:00;;;;;;;1999.90;999.90;;;11.00;99.90;;;;;;5012989;28;20398;-70
2022/04/07 02:37:26;;;;;;;1999.90;999.90;;;11.00;99.90;;;;;;5013021;28;20229;-70
2022/04/07 02:39:53;;;;;;;1999.90;999.90;;;10.90;99.90;;;;;;5013016;28;20982;-70
2022/04/07 02:42:19;;;;;;;1999.90;999.90;;;11.00;99.90;;;;;;5013046;28;20246;-70
2022/04/07 02:44:44;;;;;;;1999.90;999.90;;;10.90;99.90;;;;;;5012923;28;20411;-70
2022/04/07 02:47:10;;;;;;;1999.90;999.90;;;10.90;99.90;;;;;;5012917;28;20457;-70
2022/04/07 02:49:39;;;;;;;1999.90;999.90;;;10.90;99.90;;;;;;5012845;28;20215;-70
2022/04/07 02:52:08;;;;;;;1999.90;999.90;;;10.90;99.90;;;;;;5013029;28;20183;-70
2022/04/07 02:54:34;;;;;;;1999.90;999.90;;;10.90;99.90;;;;;;5012600;28;20927;-70
2022/04/07 02:57:00;;;;;;;1999.90;999.90;;;10.90;99.90;;;;;;5012772;28;20414;-70
2022/04/07 02:59:25;;;;;;;1999.90;999.90;;;10.90;99.90;;;;;;5012554;28;20435;-71
2022/04/07 03:01:53;;;;;;;1999.90;999.90;;;10.90;99.90;;;;;;5012733;28;20176;-71
2022/04/07 03:04:19;;;;;;;1999.90;999.90;;;10.90;99.90;;;;;;5012788;28;20252;-70
2022/04/07 03:06:44;;;;;;;1999.90;999.90;;;10.90;99.90;;;;;;5012582;28;20450;-70
2022/04/07 03:09:10;;;;;;;1999.90;999.90;;;11.00;99.90;;;;;;5012558;28;20669;-70
2022/04/07 03:11:36;;;;;;;1999.90;999.90;;;10.90;99.90;;;;;;5012514;28;20199;-71
2022/04/07 03:14:01;;;;;;;1999.90;999.90;;;11.00;99.90;;;;;;5012317;28;20519;-70
2022/04/07 03:16:27;;;;;;;1999.90;999.90;;;11.00;99.90;;;;;;5012587;28;20199;-70
2022/04/07 03:18:52;;;;;;;1999.90;999.90;;;10.90;99.90;;;;;;5012405;28;20196;-70
2022/04/07 03:21:18;;;;;;;1999.90;999.90;;;11.00;99.90;;;;;;5012394;28;20176;-71
2022/04/07 03:23:43;;;;;;;1999.90;999.90;;;10.90;99.90;;;;;;5012392;28;20565;-70
2022/04/07 03:26:09;;;;;;;1999.90;999.90;;;11.00;99.90;;;;;;5012185;28;20215;-70
2022/04/07 03:28:35;;;;;;;1999.90;999.90;;;11.00;99.90;;;;;;5012211;28;20223;-70
2022/04/07 03:31:00;;;;;;;1999.90;999.90;;;11.00;99.90;;;;;;5012378;28;20414;-70
2022/04/07 03:33:26;;;;;;;1999.90;999.90;;;11.00;99.90;;;;;;5012312;28;20263;-71
2022/04/07 03:35:52;;;;;;;1999.90;999.90;;;10.90;99.90;;;;;;5012170;28;20165;-70
2022/04/07 03:38:18;;;;;;;1999.90;999.90;;;11.00;99.90;;;;;;5012277;28;20799;-70
2022/04/07 03:40:43;;;;;;;1999.90;999.90;;;11.00;99.90;;;;;;5012235;28;20510;-71
2022/04/07 03:43:09;;;;;;;1999.90;999.90;;;11.00;99.90;;;;;;5012251;28;20541;-70
2022/04/07 03:45:35;;;;;;;1999.90;999.90;;;11.10;99.90;;;;;;5011990;28;20225;-71
2022/04/07 03:48:01;;;;;;;1999.90;999.90;;;11.10;99.90;;;;;;5012235;28;20223;-72
2022/04/07 03:50:26;;;;;;;1999.90;999.90;;;11.20;99.90;;;;;;5015857;28;20234;-71
2022/04/07 03:52:53;;;;;;;1999.90;999.90;;;11.10;99.90;;;;;;5016196;28;20435;-70
2022/04/07 03:55:20;;;;;;;1999.90;999.90;;;11.10;99.90;;;;;;5015987;28;20192;-70
2022/04/07 03:57:45;;;;;;;1999.90;999.90;;;11.20;99.90;;;;;;5016266;28;20902;-71
2022/04/07 04:00:11;;;;;;;1999.90;999.90;;;11.10;99.90;;;;;;5015953;28;20485;-70
2022/04/07 04:02:37;;;;;;;1999.90;999.90;;;11.20;99.90;;;;;;5015940;28;20183;-70
2022/04/07 04:05:03;;;;;;;1999.90;999.90;;;11.20;99.90;;;;;;5015790;28;20497;-71
2022/04/07 04:07:29;;;;;;;1999.90;999.90;;;11.20;99.90;;;;;;5015784;28;20206;-71
2022/04/07 04:09:54;;;;;;;1999.90;999.90;;;11.20;99.90;;;;;;5015959;28;20457;-70
2022/04/07 04:12:20;;;;;;;1999.90;999.90;;;11.20;99.90;;;;;;5015804;28;20183;-70
2022/04/07 04:14:45;;;;;;;1999.90;999.90;;;11.20;99.90;;;;;;5015585;28;20180;-71
2022/04/07 04:17:11;;;;;;;1999.90;999.90;;;11.20;99.90;;;;;;5015685;28;20216;-71
2022/04/07 04:19:36;;;;;;;1999.90;999.90;;;11.20;99.90;;;;;;5015613;28;20203;-70
2022/04/07 04:22:02;;;;;;;1999.90;999.90;;;11.20;99.90;;;;;;5015968;28;20180;-70
2022/04/07 04:24:28;;;;;;;1999.90;999.90;;;11.30;99.90;;;;;;5015532;28;20179;-70
2022/04/07 04:26:53;;;;;;;1999.90;999.90;;;11.30;99.90;;;;;;5015490;28;20196;-70
2022/04/07 04:29:19;;;;;;;1999.90;999.90;;;11.30;99.90;;;;;;5015413;28;20625;-70
2022/04/07 04:31:45;;;;;;;1999.90;999.90;;;11.30;99.90;;;;;;5015539;28;20176;-70
2022/04/07 04:34:10;;;;;;;1999.90;999.90;;;11.30;99.90;;;;;;5015371;28;20182;-70
2022/04/07 04:36:36;;;;;;;1999.90;999.90;;;11.30;99.90;;;;;;5015316;28;20178;-71
2022/04/07 04:39:02;;;;;;;1999.90;999.90;;;11.30;99.90;;;;;;5015356;28;20684;-70
2022/04/07 04:41:27;;;;;;;1999.90;999.90;;;11.30;99.90;;;;;;5015314;28;20259;-71
2022/04/07 04:43:54;;;;;;;1999.90;999.90;;;11.40;99.90;;;;;;5015224;28;20992;-70
2022/04/07 04:46:20;;;;;;;1999.90;999.90;;;11.40;99.90;;;;;;5014983;28;20165;-71
2022/04/07 04:48:45;;;;;;;1999.90;999.90;;;11.50;99.90;;;;;;5015047;28;20426;-70
2022/04/07 04:51:11;;;;;;;1999.90;999.90;;;11.40;99.90;;;;;;5015136;28;20709;-71
2022/04/07 04:53:36;;;;;;;1999.90;999.90;;;11.40;99.90;;;;;;5015142;28;20173;-71
2022/04/07 04:56:02;;;;;;;1999.90;999.90;;;11.20;99.90;;;;;;5014735;28;20202;-70
2022/04/07 04:58:28;;;;;;;1999.90;999.90;;;11.00;99.90;;;;;;5015012;28;20622;-71
2022/04/07 05:00:53;;;;;;;1999.90;999.90;;;10.90;99.90;;;;;;5014807;28;20187;-71
2022/04/07 05:03:19;;;;;;;1999.90;999.90;;;10.90;99.90;;;;;;5014899;28;20620;-72
2022/04/07 05:05:44;;;;;;;1999.90;999.90;;;10.80;99.90;;;;;;5014501;28;20176;-72
2022/04/07 05:08:10;;;;;;;1999.90;999.90;;;10.70;99.90;;;;;;5014695;28;20215;-72
2022/04/07 05:10:36;;;;;;;1999.90;999.90;;;10.70;99.90;;;;;;5014678;28;20167;-73
2022/04/07 05:13:02;;;;;;;1999.90;999.90;;;10.60;99.90;;;;;;5014921;28;20645;-72
2022/04/07 05:15:28;;;;;;;1999.90;999.90;;;10.50;99.90;;;;;;5014460;28;20418;-72
2022/04/07 05:17:54;;;;;;;1999.90;999.90;;;10.40;99.90;;;;;;5014651;28;20187;-72
2022/04/07 05:20:21;;;;;;;1999.90;999.90;;;10.40;99.90;;;;;;5014511;28;20710;-71
2022/04/07 05:22:47;;;;;;;1999.90;999.90;;;10.40;99.90;;;;;;5014545;28;20885;-70
2022/04/07 05:25:13;;;;;;;1999.90;999.90;;;10.40;99.90;;;;;;5014206;28;20491;-70
2022/04/07 05:27:40;;;;;;;1999.90;999.90;;;10.40;99.90;;;;;;5014429;28;20661;-71
2022/04/07 05:30:15;;;;;;;1999.90;999.90;;;10.50;99.90;;;;;;5014266;28;20497;-71
2022/04/07 05:32:45;;;;;;;1999.90;999.90;;;10.60;99.90;;;;;;5014507;28;20410;-70
2022/04/07 05:35:15;;;;;;;1999.90;999.90;;;10.70;99.90;;;;;;5014060;28;20426;-71
2022/04/07 05:37:41;;;;;;;1999.90;999.90;;;10.70;99.90;;;;;;5014119;28;21237;-70
2022/04/07 05:40:11;;;;;;;1999.90;999.90;;;10.80;99.90;;;;;;5014108;28;20440;-70
2022/04/07 05:42:37;;;;;;;1999.90;999.90;;;10.90;99.90;;;;;;5014309;28;20418;-71
2022/04/07 05:45:03;;;;;;;1999.90;999.90;;;10.80;99.90;;;;;;5013802;28;20903;-70
2022/04/07 05:47:29;;;;;;;1999.90;999.90;;;10.80;99.90;;;;;;5013937;28;20450;-70
2022/04/07 05:49:56;;;;;;;1999.90;999.90;;;10.80;99.90;;;;;;5013852;28;20434;-70
2022/04/07 05:52:22;;;;;;;1999.90;999.90;;;10.80;99.90;;;;;;5013984;28;20172;-69
2022/04/07 05:54:47;;;;;;;1999.90;999.90;;;10.70;99.90;;;;;;5013642;28;20422;-70
2022/04/07 05:57:13;;;;;;;1999.90;999.90;;;10.70;99.90;;;;;;5013854;28;20409;-71
2022/04/07 05:59:38;;;;;;;1999.90;999.90;;;10.60;99.90;;;;;;5013799;28;20200;-71
2022/04/07 06:02:04;;;;;;;1999.90;999.90;;;10.50;99.90;;;;;;5013812;28;20202;-71
2022/04/07 06:04:30;;;;;;;1999.90;999.90;;;10.30;99.90;;;;;;5013342;28;20192;-71
2022/04/07 06:06:55;;;;;;;1999.90;999.90;;;10.30;99.90;;;;;;5013660;28;20230;-71
2022/04/07 06:09:21;;;;;;;1999.90;999.90;;;10.10;99.90;;;;;;5013644;28;20198;-72
2022/04/07 06:11:47;;;;;;;1999.90;999.90;;;10.10;99.90;;;;;;5013089;28;20221;-70
2022/04/07 06:14:12;;;;;;;1999.90;999.90;;;10.00;99.90;;;;;;5013354;28;20249;-70
2022/04/07 06:16:38;;;;;;;1999.90;999.90;;;10.00;99.90;;;;;;5013574;28;20202;-71
2022/04/07 06:19:03;;;;;;;1999.90;999.90;;;9.90;99.90;;;;;;5013342;28;20202;-71
2022/04/07 06:21:33;;;;;;;1999.90;999.90;;;10.00;99.90;;;;;;5013519;28;20640;-70
2022/04/07 06:23:59;;;;;;;1999.90;999.90;;;10.00;99.90;;;;;;5013366;28;20612;-70
2022/04/07 06:26:25;;;;;;;1999.90;999.90;;;10.10;99.90;;;;;;5013206;28;20462;-70
2022/04/07 06:28:50;;;;;;;1999.90;999.90;;;10.20;99.90;;;;;;5013203;28;20211;-70
2022/04/07 06:31:16;;;;;;;1999.90;999.90;;;10.30;99.90;;;;;;5013370;28;20178;-71
2022/04/07 06:33:41;;;;;;;1999.90;999.90;;;10.40;99.90;;;;;;5013148;28;20262;-71
2022/04/07 06:36:07;;;;;;;1999.90;999.90;;;10.50;99.90;;;;;;5012837;28;20182;-70
2022/04/07 06:38:33;;;;;;;1999.90;999.90;;;10.60;99.90;;;;;;5013284;28;20276;-71
2022/04/07 06:40:59;;;;;;;1999.90;999.90;;;10.60;99.90;;;;;;5013199;28;20608;-71
2022/04/07 06:43:25;;;;;;;1999.90;999.90;;;10.50;99.90;;;;;;5013044;28;20221;-71
2022/04/07 06:45:50;;;;;;;1999.90;999.90;;;10.50;99.90;;;;;;5012770;28;20471;-71
2022/04/07 06:48:16;;;;;;;1999.90;999.90;;;10.50;99.90;;;;;;5012810;28;20198;-71
2022/04/07 06:50:44;;;;;;;1999.90;999.90;;;10.40;99.90;;;;;;5012888;28;20194;-71
2022/04/07 06:53:09;;;;;;;1999.90;999.90;;;10.40;99.90;;;;;;5012941;28;20169;-71
2022/04/07 06:55:35;;;;;;;1999.90;999.90;;;10.40;99.90;;;;;;5012501;28;20411;-71
2022/04/07 06:58:03;;;;;;;1999.90;999.90;;;10.50;99.90;;;;;;5012807;28;20645;-71
2022/04/07 07:00:34;;;;;;;1999.90;999.90;;;10.60;99.90;;;;;;5012738;28;20218;-70
2022/04/07 07:03:02;;;;;;;1999.90;999.90;;;10.60;99.90;;;;;;5012701;28;20908;-70
2022/04/07 07:05:30;;;;;;;1999.90;999.90;;;10.70;99.90;;;;;;5012402;28;20425;-70
2022/04/07 07:07:56;;;;;;;1999.90;999.90;;;10.90;99.90;;;;;;5012572;28;20512;-70
2022/04/07 07:10:24;;;;;;;1999.90;999.90;;;11.00;99.90;;;;;;5012625;28;20427;-70
2022/04/07 07:12:51;;;;;;;1999.90;999.90;;;11.00;99.90;;;;;;5012611;28;20433;-72
2022/04/07 07:15:16;;;;;;;1999.90;999.90;;;10.90;99.90;;;;;;5012457;28;20418;-72
2022/04/07 07:17:42;;;;;;;1999.90;999.90;;;10.80;99.90;;;;;;5012422;28;20411;-71
2022/04/07 07:20:12;;;;;;;1999.90;999.90;;;10.70;99.90;;;;;;5012391;28;20196;-72
2022/04/07 07:22:42;;;;;;;1999.90;999.90;;;10.70;99.90;;;;;;5012110;28;20716;-72
2022/04/07 07:25:09;;;;;;;1999.90;999.90;;;10.70;99.90;;;;;;5011675;28;20418;-71
2022/04/07 07:27:39;;;;;;;1999.90;999.90;;;10.80;99.90;;;;;;5012347;28;20451;-71
2022/04/07 07:30:09;;;;;;;1999.90;999.90;;;10.90;99.90;;;;;;5012131;28;20462;-71
2022/04/07 07:32:55;;;;;;;1999.90;999.90;;;11.10;99.90;;;;;;5012262;28;20402;-71
2022/04/07 07:35:22;;;;;;;1999.90;999.90;;;11.20;99.90;;;;;;5011637;28;20438;-71
2022/04/07 07:37:59;;;;;;;1999.90;999.90;;;11.30;99.90;;;;;;5012273;28;20450;-71
2022/04/07 07:40:30;;;;;;;1999.90;999.90;;;11.50;99.90;;;;;;5012110;28;20435;-71
2022/04/07 07:42:56;;;;;;;1999.90;999.90;;;11.50;99.90;;;;;;5012234;28;20419;-71
2022/04/07 07:45:24;;;;;;;1999.90;999.90;;;11.40;99.90;;;;;;5012093;28;20831;-72
2022/04/07 07:47:51;;;;;;;1999.90;999.90;;;11.30;99.90;;;;;;5012060;28;20470;-72
2022/04/07 07:50:16;;;;;;;1999.90;999.90;;;11.20;99.90;;;;;;5012101;28;20430;-72
2022/04/07 07:52:43;;;;;;;1999.90;999.90;;;11.20;99.90;;;;;;5012178;28;20410;-72
2022/04/07 07:55:09;;;;;;;1999.90;999.90;;;11.20;99.90;;;;;;5011796;28;20164;-72
2022/04/07 07:57:34;;;;;;;1999.90;999.90;;;11.30;99.90;;;;;;5012037;28;20419;-72
2022/04/07 08:00:00;;;;;;;1999.90;999.90;;;11.50;99.90;;;;;;5011992;28;20459;-72
2022/04/07 08:02:26;;;;;;;1999.90;999.90;;;11.60;99.90;;;;;;5012037;28;20183;-72
2022/04/07 08:04:52;;;;;;;1999.90;999.90;;;11.70;99.90;;;;;;5011808;28;20415;-72
2022/04/07 08:07:18;;;;;;;1999.90;999.90;;;11.80;99.90;;;;;;5011895;28;20450;-71
2022/04/07 08:09:43;;;;;;;1999.90;999.90;;;11.70;99.90;;;;;;5011910;28;20242;-72
2022/04/07 08:12:09;;;;;;;1999.90;999.90;;;11.60;99.90;;;;;;5011947;28;20168;-72
2022/04/07 08:14:35;;;;;;;1999.90;999.90;;;11.40;99.90;;;;;;5011852;28;20313;-72
2022/04/07 08:17:00;;;;;;;1999.90;999.90;;;11.40;99.90;;;;;;5011932;28;20698;-72
2022/04/07 08:19:26;;;;;;;1999.90;999.90;;;11.50;99.90;;;;;;5011783;28;20205;-72
2022/04/07 08:21:52;;;;;;;1999.90;999.90;;;11.60;99.90;;;;;;5011417;28;20181;-72
2022/04/07 08:24:19;;;;;;;1999.90;999.90;;;11.70;99.90;;;;;;5011357;28;20647;-72
2022/04/07 08:26:45;;;;;;;1999.90;999.90;;;11.90;99.90;;;;;;5011779;28;20196;-71
2022/04/07 08:29:11;;;;;;;1999.90;999.90;;;12.20;99.90;;;;;;5012037;28;20513;-71
2022/04/07 08:31:37;;;;;;;1999.90;999.90;;;12.30;99.90;;;;;;5008571;28;20420;-71
2022/04/07 08:34:03;;;;;;;1999.90;999.90;;;12.50;99.90;;;;;;5011299;28;20410;-71
2022/04/07 08:36:28;;;;;;;1999.90;999.90;;;12.70;99.90;;;;;;5015543;28;20192;-71
2022/04/07 08:38:54;;;;;;;1999.90;999.90;;;12.80;99.90;;;;;;5015704;28;20203;-70
2022/04/07 08:41:21;;;;;;;1999.90;999.90;;;12.90;99.90;;;;;;5015559;28;20569;-70
2022/04/07 08:43:46;;;;;;;1999.90;999.90;;;12.80;99.90;;;;;;5015845;28;20169;-71
2022/04/07 08:46:13;;;;;;;1999.90;999.90;;;12.50;99.90;;;;;;5015030;28;20407;-71
2022/04/07 08:48:43;;;;;;;1999.90;999.90;;;12.20;99.90;;;;;;5008444;28;20755;-71
2022/04/07 08:51:12;;;;;;;1999.90;999.90;;;11.90;99.90;;;;;;5013734;28;20405;-72
2022/04/07 08:53:39;;;;;;;1999.90;999.90;;;11.80;99.90;;;;;;5014474;28;20420;-72
2022/04/07 08:56:06;;;;;;;1999.90;999.90;;;11.80;99.90;;;;;;5013974;28;20398;-72
2022/04/07 08:58:32;;;;;;;1999.90;999.90;;;11.80;99.90;;;;;;5014941;28;20426;-71
2022/04/07 09:00:59;;;;;;;1999.90;999.90;;;11.90;99.90;;;;;;5014124;28;20484;-71
2022/04/07 09:03:25;;;;;;;1999.90;999.90;;;12.20;99.90;;;;;;5013697;28;20181;-72
2022/04/07 09:06:01;;;;;;;1999.90;999.90;;;12.40;99.90;;;;;;5014050;28;20493;-72
2022/04/07 09:08:30;;;;;;;1999.90;999.90;;;12.70;99.90;;;;;;5014098;28;20483;-71
2022/04/07 09:10:58;;;;;;;1999.90;999.90;;;12.90;99.90;;;;;;5013707;28;20432;-70
2022/04/07 09:13:23;;;;;;;1999.90;999.90;;;13.10;99.90;;;;;;5013934;28;20418;-71
2022/04/07 09:15:49;;;;;;;1999.90;999.90;;;13.30;99.90;;;;;;5012440;28;20411;-71
2022/04/07 09:18:24;;;;;;;1999.90;999.90;;;13.50;99.90;;;;;;5012262;28;20192;-71
2022/04/07 09:20:50;;;;;;;1999.90;999.90;;;13.60;99.90;;;;;;5013841;28;20411;-71
2022/04/07 09:23:17;;;;;;;1999.90;999.90;;;13.60;99.90;;;;;;5014071;28;20416;-71
2022/04/07 09:25:49;;;;;;;1999.90;999.90;;;13.60;99.90;;;;;;5013566;28;20203;-71
2022/04/07 09:28:27;;;;;;;1999.90;999.90;;;13.60;99.90;;;;;;5013971;28;20459;-71
2022/04/07 09:30:54;;;;;;;1999.90;999.90;;;13.70;99.90;;;;;;5014069;28;20458;-71
2022/04/07 09:33:22;;;;;;;1999.90;999.90;;;13.90;99.90;;;;;;5013507;28;20413;-71
2022/04/07 09:36:08;;;;;;;1999.90;999.90;;;14.10;99.90;;;;;;5012472;28;20427;-71
2022/04/07 09:38:37;;;;;;;1999.90;999.90;;;14.20;99.90;;;;;;5014472;28;20472;-72
2022/04/07 09:41:08;;;;;;;1999.90;999.90;;;14.20;99.90;;;;;;5014297;28;20979;-72
2022/04/07 09:43:48;;;;;;;1999.90;999.90;;;14.00;99.90;;;;;;5014046;28;20925;-72
2022/04/07 09:46:16;;;;;;;1999.90;999.90;;;13.70;99.90;;;;;;5013619;28;20416;-72
2022/04/07 09:49:03;;;;;;;1999.90;999.90;;;13.60;99.90;;;;;;5013625;28;20635;-72
2022/04/07 09:51:29;;;;;;;1999.90;999.90;;;13.30;99.90;;;;;;5013641;28;20491;-72
2022/04/07 09:53:57;;;;;;;1999.90;999.90;;;13.10;99.90;;;;;;5013577;28;20458;-72
2022/04/07 09:56:27;;;;;;;1999.90;999.90;;;12.80;99.90;;;;;;5012042;28;20479;-72
2022/04/07 09:58:54;;;;;;;1999.90;999.90;;;12.60;99.90;;;;;;5013609;28;20420;-71
2022/04/07 10:01:20;;;;;;;1999.90;999.90;;;12.30;99.90;;;;;;5013063;28;20401;-72
2022/04/07 10:03:50;;;;;;;1999.90;999.90;;;12.10;99.90;;;;;;5011610;28;20411;-72
2022/04/07 10:06:16;;;;;;;1999.90;999.90;;;11.90;99.90;;;;;;5013026;28;20411;-73
2022/04/07 10:08:43;;;;;;;1999.90;999.90;;;11.90;99.90;;;;;;5011992;28;20509;-74
2022/04/07 10:14:38;;;;;;;1999.90;999.90;;;11.60;99.90;;;;;;4993833;28;20412;-73
2022/04/07 10:17:09;;;;;;;1999.90;999.90;;;11.50;99.90;;;;;;5012592;28;20946;-72
2022/04/07 10:20:00;;;;;;;1999.90;999.90;;;11.40;99.90;;;;;;5012409;28;21001;-73
2022/04/07 10:22:42;;;;;;;1999.90;999.90;;;11.20;99.90;;;;;;5011229;28;20990;-71
2022/04/07 10:25:08;;;;;;;1999.90;999.90;;;11.10;99.90;;;;;;5012180;28;20398;-72
2022/04/07 10:27:40;;;;;;;1999.90;999.90;;;10.90;99.90;;;;;;5013079;28;20694;-71
2022/04/07 10:30:12;;;;;;;1999.90;999.90;;;10.80;99.90;;;;;;5012768;28;21007;-72
2022/04/07 10:32:42;;;;;;;1999.90;999.90;;;10.60;99.90;;;;;;5012272;28;20397;-71
2022/04/07 10:35:10;;;;;;;1999.90;999.90;;;10.60;99.90;;;;;;5012550;28;20415;-72
2022/04/07 10:37:47;;;;;;;1999.90;999.90;;;10.50;99.90;;;;;;5012576;28;20438;-71
2022/04/07 10:40:32;;;;;;;1999.90;999.90;;;10.50;99.90;;;;;;5011986;28;20438;-73
2022/04/07 10:43:07;;;;;;;1999.90;999.90;;;10.60;99.90;;;;;;5012329;28;20954;-72
2022/04/07 10:45:36;;;;;;;1999.90;999.90;;;10.70;99.90;;;;;;5012337;28;20488;-72
2022/04/07 10:48:28;;;;;;;1999.90;999.90;;;10.80;99.90;;;;;;5011840;28;20476;-72
2022/04/07 10:51:01;;;;;;;1999.90;999.90;;;10.70;99.90;;;;;;5012411;28;20489;-72
2022/04/07 10:53:37;;;;;;;1999.90;999.90;;;11.00;99.90;;;;;;5012584;28;20486;-72
2022/04/07 10:56:25;;;;;;;1999.90;999.90;;;11.20;99.90;;;;;;5011923;28;20919;-72
2022/04/07 10:58:55;;;;;;;1999.90;999.90;;;11.40;99.90;;;;;;5012059;28;20795;-72
2022/04/07 11:01:30;;;;;;;1999.90;999.90;;;11.50;99.90;;;;;;5011004;28;20946;-72
2022/04/07 11:04:20;;;;;;;1999.90;999.90;;;11.70;99.90;;;;;;5012428;28;20775;-73
2022/04/07 11:07:10;;;;;;;1999.90;999.90;;;11.80;99.90;;;;;;5012262;28;20443;-72
2022/04/07 11:09:50;;;;;;;1999.90;999.90;;;11.90;99.90;;;;;;5005664;28;20871;-72
2022/04/07 11:12:25;;;;;;;1999.90;999.90;;;11.80;99.90;;;;;;5012472;28;20410;-72
2022/04/07 11:15:16;;;;;;;1999.90;999.90;;;11.90;99.90;;;;;;5011966;28;20460;-72
2022/04/07 11:17:41;;;;;;;1999.90;999.90;;;12.30;99.90;;;;;;5011154;28;20773;-72
2022/04/07 11:20:24;;;;;;;1999.90;999.90;;;12.60;99.90;;;;;;5011862;28;20519;-72
2022/04/07 11:22:55;;;;;;;1999.90;999.90;;;12.80;99.90;;;;;;5011680;28;20204;-72
2022/04/07 11:25:30;;;;;;;1999.90;999.90;;;12.90;99.90;;;;;;5010763;28;20446;-72
2022/04/07 11:28:22;;;;;;;1999.90;999.90;;;12.90;99.90;;;;;;5011776;28;20449;-73
2022/04/07 11:30:56;;;;;;;1999.90;999.90;;;12.90;99.90;;;;;;5011919;28;20487;-72
2022/04/07 11:33:28;;;;;;;1999.90;999.90;;;12.90;99.90;;;;;;5011654;28;20478;-72
2022/04/07 11:35:59;;;;;;;1999.90;999.90;;;13.00;99.90;;;;;;5011616;28;20389;-72
2022/04/07 11:38:45;;;;;;;1999.90;999.90;;;13.00;99.90;;;;;;5011418;28;20534;-73
2022/04/07 11:41:18;;;;;;;1999.90;999.90;;;13.10;99.90;;;;;;5011953;28;20403;-72
2022/04/07 11:43:49;;;;;;;1999.90;999.90;;;13.10;99.90;;;;;;5011923;28;20464;-72
2022/04/07 11:46:23;;;;;;;1999.90;999.90;;;13.10;99.90;;;;;;5010927;28;20878;-72
2022/04/07 11:48:50;;;;;;;1999.90;999.90;;;13.30;99.90;;;;;;5011758;28;20448;-72
2022/04/07 11:51:19;;;;;;;1999.90;999.90;;;13.70;99.90;;;;;;5011651;28;20403;-72
2022/04/07 11:53:53;;;;;;;1999.90;999.90;;;14.10;99.90;;;;;;5011215;28;20803;-72
2022/04/07 11:56:20;;;;;;;1999.90;999.90;;;14.50;99.90;;;;;;5011452;28;20404;-72
2022/04/07 11:59:04;;;;;;;1999.90;999.90;;;15.00;99.90;;;;;;5011580;28;20431;-72
2022/04/07 12:01:31;;;;;;;1999.90;999.90;;;15.20;99.90;;;;;;5011074;28;20409;-72
2022/04/07 12:04:02;;;;;;;1999.90;999.90;;;15.40;99.90;;;;;;5011813;28;20400;-72
2022/04/07 12:06:33;;;;;;;1999.90;999.90;;;15.40;99.90;;;;;;5011385;28;20468;-72